Copper Harbor, Michigan
Current Conditions -  °F | °C
As of 6:53 PM on Friday 19 Dec 2014 (Local Time) from KCMX Reporting Station
Overcast Overcast  
Wind Chill: 24°   Ceiling: 2000
Heat Index: 24°   Visibility: 10mi
Dew Point: 18°   Wind: 0mph
Humidity: 77%   Direction: NA
Pressure: 30.23"   Gusts: NA
Location:  47.47°N, 87.89°W
Report Text: KCMX 192353Z AUTO 00000KT 10SM OVC020 M04/M08 A3023 RMK AO2 SLP255 T10441078 11028 21050 53002 $
Loading
Personal Weather Stations






























Interactive Weather Map New forecast layout! Learn more

10-Day Weather Forecast

Advertisements
Track Severe Weather on mobile